sensor_id;sensor_type;location;lat;lon;timestamp;P1;P2;P0
77413;PMS7003;66486;49.992;19.164;2023-06-04T00:02:15;47.50;45.00;30.50
77413;PMS7003;66486;49.992;19.164;2023-06-04T00:04:41;42.40;42.40;30.60
77413;PMS7003;66486;49.992;19.164;2023-06-04T00:07:07;40.50;38.50;27.75
77413;PMS7003;66486;49.992;19.164;2023-06-04T00:09:33;46.00;42.00;28.80
77413;PMS7003;66486;49.992;19.164;2023-06-04T00:11:59;37.50;37.00;27.75
77413;PMS7003;66486;49.992;19.164;2023-06-04T00:14:25;38.20;38.20;26.40
77413;PMS7003;66486;49.992;19.164;2023-06-04T00:16:51;35.00;32.75;21.75
77413;PMS7003;66486;49.992;19.164;2023-06-04T00:19:17;38.20;37.80;26.60
77413;PMS7003;66486;49.992;19.164;2023-06-04T00:21:43;33.50;33.00;22.00
77413;PMS7003;66486;49.992;19.164;2023-06-04T00:24:11;30.20;27.80;18.20
77413;PMS7003;66486;49.992;19.164;2023-06-04T00:26:37;25.00;23.40;16.00
77413;PMS7003;66486;49.992;19.164;2023-06-04T00:29:03;21.20;21.20;13.80
77413;PMS7003;66486;49.992;19.164;2023-06-04T00:31:29;32.25;31.50;21.50
77413;PMS7003;66486;49.992;19.164;2023-06-04T00:33:55;22.80;21.80;15.80
77413;PMS7003;66486;49.992;19.164;2023-06-04T00:36:21;24.50;24.00;15.50
77413;PMS7003;66486;49.992;19.164;2023-06-04T00:38:47;24.60;24.60;19.00
77413;PMS7003;66486;49.992;19.164;2023-06-04T00:41:13;17.00;16.25;10.50
77413;PMS7003;66486;49.992;19.164;2023-06-04T00:43:39;23.80;23.80;18.60
77413;PMS7003;66486;49.992;19.164;2023-06-04T00:46:06;25.50;25.50;18.75
77413;PMS7003;66486;49.992;19.164;2023-06-04T00:48:32;33.40;30.40;21.00
77413;PMS7003;66486;49.992;19.164;2023-06-04T00:50:58;39.60;38.00;23.60
77413;PMS7003;66486;49.992;19.164;2023-06-04T00:53:25;41.80;37.60;23.60
77413;PMS7003;66486;49.992;19.164;2023-06-04T00:55:52;24.40;24.40;16.00
77413;PMS7003;66486;49.992;19.164;2023-06-04T00:58:19;36.20;33.20;25.00
77413;PMS7003;66486;49.992;19.164;2023-06-04T01:00:45;28.60;26.00;17.60
77413;PMS7003;66486;49.992;19.164;2023-06-04T01:03:16;28.40;26.80;17.40
77413;PMS7003;66486;49.992;19.164;2023-06-04T01:08:17;26.00;24.00;18.20
77413;PMS7003;66486;49.992;19.164;2023-06-04T01:10:53;28.20;26.60;22.00
77413;PMS7003;66486;49.992;19.164;2023-06-04T01:13:20;18.20;18.20;12.20
77413;PMS7003;66486;49.992;19.164;2023-06-04T01:15:45;25.50;25.50;19.00
77413;PMS7003;66486;49.992;19.164;2023-06-04T01:18:12;23.20;23.20;16.00
77413;PMS7003;66486;49.992;19.164;2023-06-04T01:20:55;22.00;21.20;18.00
77413;PMS7003;66486;49.992;19.164;2023-06-04T01:23:37;19.80;19.00;15.00
77413;PMS7003;66486;49.992;19.164;2023-06-04T01:26:11;19.80;19.00;16.20
77413;PMS7003;66486;49.992;19.164;2023-06-04T01:28:37;24.60;24.00;16.80
77413;PMS7003;66486;49.992;19.164;2023-06-04T01:31:04;18.60;18.40;15.00
77413;PMS7003;66486;49.992;19.164;2023-06-04T01:33:33;18.40;17.40;12.00
77413;PMS7003;66486;49.992;19.164;2023-06-04T01:35:59;17.20;17.20;14.60
77413;PMS7003;66486;49.992;19.164;2023-06-04T01:38:26;15.60;15.60;12.40
77413;PMS7003;66486;49.992;19.164;2023-06-04T01:40:52;17.60;15.00;12.40
77413;PMS7003;66486;49.992;19.164;2023-06-04T01:43:22;14.80;13.40;9.00
77413;PMS7003;66486;49.992;19.164;2023-06-04T01:45:48;15.00;15.00;11.20
77413;PMS7003;66486;49.992;19.164;2023-06-04T01:48:14;14.80;13.80;10.40
77413;PMS7003;66486;49.992;19.164;2023-06-04T01:50:40;12.40;12.40;9.60
77413;PMS7003;66486;49.992;19.164;2023-06-04T01:53:06;11.00;10.20;7.00
77413;PMS7003;66486;49.992;19.164;2023-06-04T01:55:32;13.00;10.00;9.00
77413;PMS7003;66486;49.992;19.164;2023-06-04T01:57:59;13.00;13.00;12.00
77413;PMS7003;66486;49.992;19.164;2023-06-04T02:00:26;6.80;6.80;4.00
77413;PMS7003;66486;49.992;19.164;2023-06-04T02:02:52;12.60;12.60;8.20
77413;PMS7003;66486;49.992;19.164;2023-06-04T02:05:18;12.80;12.60;10.40
77413;PMS7003;66486;49.992;19.164;2023-06-04T02:07:45;12.60;10.80;7.80
77413;PMS7003;66486;49.992;19.164;2023-06-04T02:10:16;14.00;12.60;9.80
77413;PMS7003;66486;49.992;19.164;2023-06-04T02:12:56;14.20;14.20;9.80
77413;PMS7003;66486;49.992;19.164;2023-06-04T02:15:27;12.20;12.20;9.60
77413;PMS7003;66486;49.992;19.164;2023-06-04T02:17:56;9.80;9.80;7.00
77413;PMS7003;66486;49.992;19.164;2023-06-04T02:20:25;12.40;12.00;9.80
77413;PMS7003;66486;49.992;19.164;2023-06-04T02:22:53;6.80;6.80;4.00
77413;PMS7003;66486;49.992;19.164;2023-06-04T02:25:22;12.20;12.20;9.20
77413;PMS7003;66486;49.992;19.164;2023-06-04T02:27:49;9.80;9.80;8.20
77413;PMS7003;66486;49.992;19.164;2023-06-04T02:30:15;8.50;8.50;6.00
77413;PMS7003;66486;49.992;19.164;2023-06-04T02:32:42;9.60;9.60;8.60
77413;PMS7003;66486;49.992;19.164;2023-06-04T02:35:09;11.20;9.80;6.60
77413;PMS7003;66486;49.992;19.164;2023-06-04T02:37:36;13.00;12.80;9.80
77413;PMS7003;66486;49.992;19.164;2023-06-04T02:40:01;9.75;9.75;8.00
77413;PMS7003;66486;49.992;19.164;2023-06-04T02:42:28;13.00;12.60;10.40
77413;PMS7003;66486;49.992;19.164;2023-06-04T02:44:54;9.50;7.50;6.25
77413;PMS7003;66486;49.992;19.164;2023-06-04T02:47:20;13.40;10.80;8.60
77413;PMS7003;66486;49.992;19.164;2023-06-04T02:49:45;12.00;12.00;9.00
77413;PMS7003;66486;49.992;19.164;2023-06-04T02:52:12;11.20;11.20;9.40
77413;PMS7003;66486;49.992;19.164;2023-06-04T02:54:38;4.00;4.00;4.00
77413;PMS7003;66486;49.992;19.164;2023-06-04T02:57:04;11.20;10.40;10.00
77413;PMS7003;66486;49.992;19.164;2023-06-04T02:59:32;10.40;10.40;7.80
77413;PMS7003;66486;49.992;19.164;2023-06-04T03:01:58;12.00;12.00;9.00
77413;PMS7003;66486;49.992;19.164;2023-06-04T03:04:24;10.75;9.50;6.25
77413;PMS7003;66486;49.992;19.164;2023-06-04T03:06:50;13.00;12.20;9.20
77413;PMS7003;66486;49.992;19.164;2023-06-04T03:09:23;12.60;12.00;8.20
77413;PMS7003;66486;49.992;19.164;2023-06-04T03:11:49;12.20;12.20;9.20
77413;PMS7003;66486;49.992;19.164;2023-06-04T03:14:15;14.25;13.50;10.50
77413;PMS7003;66486;49.992;19.164;2023-06-04T03:16:41;12.00;11.00;9.20
77413;PMS7003;66486;49.992;19.164;2023-06-04T03:19:07;12.00;10.50;9.00
77413;PMS7003;66486;49.992;19.164;2023-06-04T03:21:34;10.00;10.00;8.20
77413;PMS7003;66486;49.992;19.164;2023-06-04T03:24:00;13.00;12.60;10.40
77413;PMS7003;66486;49.992;19.164;2023-06-04T03:26:26;13.00;12.00;9.40
77413;PMS7003;66486;49.992;19.164;2023-06-04T03:28:53;13.60;11.60;9.20
77413;PMS7003;66486;49.992;19.164;2023-06-04T03:31:19;12.20;11.80;8.60
77413;PMS7003;66486;49.992;19.164;2023-06-04T03:33:45;10.60;10.60;7.80
77413;PMS7003;66486;49.992;19.164;2023-06-04T03:36:11;12.20;12.20;9.80
77413;PMS7003;66486;49.992;19.164;2023-06-04T03:38:37;12.00;12.00;9.50
77413;PMS7003;66486;49.992;19.164;2023-06-04T03:41:07;10.80;10.40;6.40
77413;PMS7003;66486;49.992;19.164;2023-06-04T03:43:32;9.20;8.60;7.80
77413;PMS7003;66486;49.992;19.164;2023-06-04T03:45:58;15.00;12.80;9.40
77413;PMS7003;66486;49.992;19.164;2023-06-04T03:48:24;12.20;12.00;9.00
77413;PMS7003;66486;49.992;19.164;2023-06-04T03:50:50;11.60;10.00;9.20
77413;PMS7003;66486;49.992;19.164;2023-06-04T03:53:16;12.00;8.50;7.00
77413;PMS7003;66486;49.992;19.164;2023-06-04T03:55:42;12.00;11.20;9.00
77413;PMS7003;66486;49.992;19.164;2023-06-04T03:58:08;15.50;15.50;11.00
77413;PMS7003;66486;49.992;19.164;2023-06-04T04:00:37;15.00;10.40;9.00
77413;PMS7003;66486;49.992;19.164;2023-06-04T04:03:02;15.00;15.00;10.50
77413;PMS7003;66486;49.992;19.164;2023-06-04T04:05:28;14.60;13.40;9.80
77413;PMS7003;66486;49.992;19.164;2023-06-04T04:07:54;13.50;13.00;10.00
77413;PMS7003;66486;49.992;19.164;2023-06-04T04:10:21;14.80;14.80;10.00
77413;PMS7003;66486;49.992;19.164;2023-06-04T04:12:46;10.00;10.00;9.50
77413;PMS7003;66486;49.992;19.164;2023-06-04T04:15:12;10.00;10.00;7.00
77413;PMS7003;66486;49.992;19.164;2023-06-04T04:17:38;12.00;10.50;9.00
77413;PMS7003;66486;49.992;19.164;2023-06-04T04:20:04;11.60;11.60;9.00
77413;PMS7003;66486;49.992;19.164;2023-06-04T04:22:31;13.00;12.40;9.20
77413;PMS7003;66486;49.992;19.164;2023-06-04T04:24:58;12.40;11.60;8.80
77413;PMS7003;66486;49.992;19.164;2023-06-04T04:27:24;9.75;9.75;7.00
77413;PMS7003;66486;49.992;19.164;2023-06-04T04:29:50;10.40;10.40;8.60
77413;PMS7003;66486;49.992;19.164;2023-06-04T04:32:25;8.60;8.60;6.40
77413;PMS7003;66486;49.992;19.164;2023-06-04T04:34:53;11.60;11.60;9.60
77413;PMS7003;66486;49.992;19.164;2023-06-04T04:37:20;9.20;8.60;6.80
77413;PMS7003;66486;49.992;19.164;2023-06-04T04:39:47;13.20;12.80;9.40
77413;PMS7003;66486;49.992;19.164;2023-06-04T04:42:17;12.00;12.00;10.00
77413;PMS7003;66486;49.992;19.164;2023-06-04T04:44:44;9.40;9.40;8.20
77413;PMS7003;66486;49.992;19.164;2023-06-04T04:47:13;5.20;5.20;4.60
77413;PMS7003;66486;49.992;19.164;2023-06-04T04:49:40;16.00;15.00;11.80
77413;PMS7003;66486;49.992;19.164;2023-06-04T04:52:06;6.25;6.25;5.50
77413;PMS7003;66486;49.992;19.164;2023-06-04T04:54:32;10.00;9.80;9.40
77413;PMS7003;66486;49.992;19.164;2023-06-04T04:56:58;9.50;9.50;7.00
77413;PMS7003;66486;49.992;19.164;2023-06-04T04:59:24;11.00;10.40;8.60
77413;PMS7003;66486;49.992;19.164;2023-06-04T05:01:51;9.00;7.60;4.40
77413;PMS7003;66486;49.992;19.164;2023-06-04T05:04:17;10.80;10.80;8.00
77413;PMS7003;66486;49.992;19.164;2023-06-04T05:06:43;8.25;8.25;7.00
77413;PMS7003;66486;49.992;19.164;2023-06-04T05:09:09;7.00;7.00;6.60
77413;PMS7003;66486;49.992;19.164;2023-06-04T05:11:35;13.00;13.00;10.00
77413;PMS7003;66486;49.992;19.164;2023-06-04T05:14:01;11.00;11.00;10.00
77413;PMS7003;66486;49.992;19.164;2023-06-04T05:16:27;13.75;10.00;8.00
77413;PMS7003;66486;49.992;19.164;2023-06-04T05:18:53;10.20;10.20;7.40
77413;PMS7003;66486;49.992;19.164;2023-06-04T05:21:22;12.60;11.00;8.80
77413;PMS7003;66486;49.992;19.164;2023-06-04T05:23:48;10.80;10.80;8.40
77413;PMS7003;66486;49.992;19.164;2023-06-04T05:26:14;10.75;10.00;8.00
77413;PMS7003;66486;49.992;19.164;2023-06-04T05:28:41;10.20;10.20;8.00
77413;PMS7003;66486;49.992;19.164;2023-06-04T05:31:09;6.40;6.40;5.80
77413;PMS7003;66486;49.992;19.164;2023-06-04T05:33:35;9.00;9.00;7.60
77413;PMS7003;66486;49.992;19.164;2023-06-04T05:36:01;11.00;11.00;9.50
77413;PMS7003;66486;49.992;19.164;2023-06-04T05:38:27;9.20;9.20;8.00
77413;PMS7003;66486;49.992;19.164;2023-06-04T05:40:56;11.00;11.00;8.80
77413;PMS7003;66486;49.992;19.164;2023-06-04T05:43:22;8.80;8.80;7.20
77413;PMS7003;66486;49.992;19.164;2023-06-04T05:45:48;11.00;9.00;8.00
77413;PMS7003;66486;49.992;19.164;2023-06-04T05:48:14;9.60;9.60;5.80
77413;PMS7003;66486;49.992;19.164;2023-06-04T05:50:40;10.00;8.20;6.20
77413;PMS7003;66486;49.992;19.164;2023-06-04T05:53:06;8.60;7.40;5.60
77413;PMS7003;66486;49.992;19.164;2023-06-04T05:55:32;10.00;8.75;6.50
77413;PMS7003;66486;49.992;19.164;2023-06-04T05:57:58;11.00;11.00;8.60
77413;PMS7003;66486;49.992;19.164;2023-06-04T06:00:24;6.00;6.00;5.25
77413;PMS7003;66486;49.992;19.164;2023-06-04T06:02:50;8.00;6.40;5.40
77413;PMS7003;66486;49.992;19.164;2023-06-04T06:05:18;6.00;6.00;5.40
77413;PMS7003;66486;49.992;19.164;2023-06-04T06:07:45;4.20;4.20;4.20
77413;PMS7003;66486;49.992;19.164;2023-06-04T06:10:11;8.00;8.00;6.00
77413;PMS7003;66486;49.992;19.164;2023-06-04T06:12:38;4.60;4.60;3.80
77413;PMS7003;66486;49.992;19.164;2023-06-04T06:15:04;7.33;7.33;6.33
77413;PMS7003;66486;49.992;19.164;2023-06-04T06:17:31;7.50;7.50;5.00
77413;PMS7003;66486;49.992;19.164;2023-06-04T06:19:58;9.50;8.75;6.50
77413;PMS7003;66486;49.992;19.164;2023-06-04T06:22:24;6.50;6.50;5.50
77413;PMS7003;66486;49.992;19.164;2023-06-04T06:24:50;8.00;7.50;6.00
77413;PMS7003;66486;49.992;19.164;2023-06-04T06:27:17;6.00;6.00;5.50
77413;PMS7003;66486;49.992;19.164;2023-06-04T06:29:43;7.00;6.00;5.50
77413;PMS7003;66486;49.992;19.164;2023-06-04T06:32:10;6.75;6.75;5.75
77413;PMS7003;66486;49.992;19.164;2023-06-04T06:34:36;7.00;6.00;5.00
77413;PMS7003;66486;49.992;19.164;2023-06-04T06:37:06;7.00;7.00;6.00
77413;PMS7003;66486;49.992;19.164;2023-06-04T06:39:32;7.00;7.00;6.00
77413;PMS7003;66486;49.992;19.164;2023-06-04T06:41:58;5.75;5.75;5.00
77413;PMS7003;66486;49.992;19.164;2023-06-04T06:44:24;5.33;5.33;5.00
77413;PMS7003;66486;49.992;19.164;2023-06-04T06:46:50;6.00;6.00;4.50
77413;PMS7003;66486;49.992;19.164;2023-06-04T06:49:16;5.00;5.00;3.00
77413;PMS7003;66486;49.992;19.164;2023-06-04T06:51:42;5.75;5.75;5.00
77413;PMS7003;66486;49.992;19.164;2023-06-04T06:54:08;8.67;7.33;6.33
77413;PMS7003;66486;49.992;19.164;2023-06-04T06:56:35;5.50;5.50;3.75
77413;PMS7003;66486;49.992;19.164;2023-06-04T06:59:00;7.33;7.33;6.33
77413;PMS7003;66486;49.992;19.164;2023-06-04T07:01:27;8.00;7.00;5.25
77413;PMS7003;66486;49.992;19.164;2023-06-04T07:03:53;6.75;6.75;5.50
77413;PMS7003;66486;49.992;19.164;2023-06-04T07:06:19;3.75;3.75;3.75
77413;PMS7003;66486;49.992;19.164;2023-06-04T07:08:45;5.33;4.00;3.00
77413;PMS7003;66486;49.992;19.164;2023-06-04T07:11:13;4.50;4.50;3.00
77413;PMS7003;66486;49.992;19.164;2023-06-04T07:13:42;7.00;6.00;4.00
77413;PMS7003;66486;49.992;19.164;2023-06-04T07:16:08;5.50;5.50;4.00
77413;PMS7003;66486;49.992;19.164;2023-06-04T07:18:33;1.33;1.33;1.33
77413;PMS7003;66486;49.992;19.164;2023-06-04T07:21:00;3.00;3.00;2.25
77413;PMS7003;66486;49.992;19.164;2023-06-04T07:23:25;4.00;4.00;3.00
77413;PMS7003;66486;49.992;19.164;2023-06-04T07:25:53;4.75;4.75;4.00
77413;PMS7003;66486;49.992;19.164;2023-06-04T07:28:19;6.25;6.25;4.75
77413;PMS7003;66486;49.992;19.164;2023-06-04T07:30:45;4.00;3.25;2.75
77413;PMS7003;66486;49.992;19.164;2023-06-04T07:33:11;3.00;3.00;2.50
77413;PMS7003;66486;49.992;19.164;2023-06-04T07:35:37;3.00;3.00;2.00
77413;PMS7003;66486;49.992;19.164;2023-06-04T07:38:03;2.00;2.00;1.67
77413;PMS7003;66486;49.992;19.164;2023-06-04T07:40:29;4.00;4.00;3.50
77413;PMS7003;66486;49.992;19.164;2023-06-04T07:42:55;3.50;3.50;3.25
77413;PMS7003;66486;49.992;19.164;2023-06-04T07:45:21;3.00;3.00;2.25
77413;PMS7003;66486;49.992;19.164;2023-06-04T07:47:47;3.33;3.33;3.00
77413;PMS7003;66486;49.992;19.164;2023-06-04T07:50:13;4.50;4.50;3.00
77413;PMS7003;66486;49.992;19.164;2023-06-04T07:52:39;1.33;1.33;1.00
77413;PMS7003;66486;49.992;19.164;2023-06-04T07:55:06;4.00;4.00;3.50
77413;PMS7003;66486;49.992;19.164;2023-06-04T07:57:33;3.75;3.75;3.00
77413;PMS7003;66486;49.992;19.164;2023-06-04T08:00:00;2.75;2.75;2.00
77413;PMS7003;66486;49.992;19.164;2023-06-04T08:02:29;2.25;2.25;2.00
77413;PMS7003;66486;49.992;19.164;2023-06-04T08:04:55;2.50;2.50;2.50
77413;PMS7003;66486;49.992;19.164;2023-06-04T08:07:21;2.20;2.20;2.00
77413;PMS7003;66486;49.992;19.164;2023-06-04T08:09:47;2.00;2.00;2.00
77413;PMS7003;66486;49.992;19.164;2023-06-04T08:12:15;2.00;2.00;1.75
77413;PMS7003;66486;49.992;19.164;2023-06-04T08:14:42;2.25;2.25;2.00
77413;PMS7003;66486;49.992;19.164;2023-06-04T08:17:08;2.40;2.40;2.00
77413;PMS7003;66486;49.992;19.164;2023-06-04T08:19:34;1.20;1.20;1.00
77413;PMS7003;66486;49.992;19.164;2023-06-04T08:22:00;1.00;1.00;1.00
77413;PMS7003;66486;49.992;19.164;2023-06-04T08:24:26;1.60;1.20;1.00
77413;PMS7003;66486;49.992;19.164;2023-06-04T08:26:53;1.40;1.40;1.20
77413;PMS7003;66486;49.992;19.164;2023-06-04T08:29:19;1.60;1.60;1.60
77413;PMS7003;66486;49.992;19.164;2023-06-04T08:31:44;2.00;2.00;1.75
77413;PMS7003;66486;49.992;19.164;2023-06-04T08:34:11;0.80;0.80;0.20
77413;PMS7003;66486;49.992;19.164;2023-06-04T08:36:36;1.00;1.00;1.00
77413;PMS7003;66486;49.992;19.164;2023-06-04T08:39:03;1.20;1.00;1.00
77413;PMS7003;66486;49.992;19.164;2023-06-04T08:44:07;1.20;1.20;1.00
77413;PMS7003;66486;49.992;19.164;2023-06-04T08:46:38;1.60;1.60;1.00
77413;PMS7003;66486;49.992;19.164;2023-06-04T08:49:08;2.00;2.00;1.80
77413;PMS7003;66486;49.992;19.164;2023-06-04T08:51:37;1.60;1.60;1.60
77413;PMS7003;66486;49.992;19.164;2023-06-04T08:54:07;1.00;1.00;1.00
77413;PMS7003;66486;49.992;19.164;2023-06-04T08:56:36;1.00;1.00;1.00
77413;PMS7003;66486;49.992;19.164;2023-06-04T08:59:03;1.60;1.60;1.20
77413;PMS7003;66486;49.992;19.164;2023-06-04T09:01:33;1.60;1.60;1.20
77413;PMS7003;66486;49.992;19.164;2023-06-04T09:04:01;1.80;1.80;1.00
77413;PMS7003;66486;49.992;19.164;2023-06-04T09:06:30;2.40;2.40;2.00
77413;PMS7003;66486;49.992;19.164;2023-06-04T09:08:58;2.00;1.40;1.00
77413;PMS7003;66486;49.992;19.164;2023-06-04T09:11:26;1.00;1.00;1.00
77413;PMS7003;66486;49.992;19.164;2023-06-04T09:13:58;1.00;1.00;1.00
77413;PMS7003;66486;49.992;19.164;2023-06-04T09:16:26;1.00;1.00;1.00
77413;PMS7003;66486;49.992;19.164;2023-06-04T09:18:53;2.00;2.00;2.00
77413;PMS7003;66486;49.992;19.164;2023-06-04T09:21:18;2.00;2.00;1.60
77413;PMS7003;66486;49.992;19.164;2023-06-04T09:23:48;2.00;2.00;2.00
77413;PMS7003;66486;49.992;19.164;2023-06-04T09:26:14;2.40;2.40;2.00
77413;PMS7003;66486;49.992;19.164;2023-06-04T09:28:41;1.00;1.00;1.00
77413;PMS7003;66486;49.992;19.164;2023-06-04T09:31:17;1.80;1.80;1.40
77413;PMS7003;66486;49.992;19.164;2023-06-04T09:36:10;1.00;1.00;1.00
77413;PMS7003;66486;49.992;19.164;2023-06-04T09:38:37;1.60;1.60;1.40
77413;PMS7003;66486;49.992;19.164;2023-06-04T09:41:03;3.20;3.00;2.00
77413;PMS7003;66486;49.992;19.164;2023-06-04T09:43:30;2.00;2.00;2.00
77413;PMS7003;66486;49.992;19.164;2023-06-04T09:46:16;2.40;2.40;1.80
77413;PMS7003;66486;49.992;19.164;2023-06-04T09:48:44;2.80;2.80;2.20
77413;PMS7003;66486;49.992;19.164;2023-06-04T09:51:11;2.60;2.20;1.00
77413;PMS7003;66486;49.992;19.164;2023-06-04T09:53:38;2.20;2.20;2.00
77413;PMS7003;66486;49.992;19.164;2023-06-04T09:56:05;2.40;2.40;2.00
77413;PMS7003;66486;49.992;19.164;2023-06-04T09:58:37;2.00;2.00;2.00
77413;PMS7003;66486;49.992;19.164;2023-06-04T10:01:04;1.00;1.00;1.00
77413;PMS7003;66486;49.992;19.164;2023-06-04T10:03:32;1.80;1.80;1.40
77413;PMS7003;66486;49.992;19.164;2023-06-04T10:06:00;2.00;2.00;1.60
77413;PMS7003;66486;49.992;19.164;2023-06-04T10:08:28;2.00;2.00;2.00
77413;PMS7003;66486;49.992;19.164;2023-06-04T10:10:56;2.60;2.60;2.00
77413;PMS7003;66486;49.992;19.164;2023-06-04T10:13:29;2.20;2.00;2.00
77413;PMS7003;66486;49.992;19.164;2023-06-04T10:15:59;2.00;2.00;2.00
77413;PMS7003;66486;49.992;19.164;2023-06-04T10:18:29;1.20;1.20;1.00
77413;PMS7003;66486;49.992;19.164;2023-06-04T10:20:55;2.40;2.40;2.00
77413;PMS7003;66486;49.992;19.164;2023-06-04T10:23:23;2.00;2.00;1.80
77413;PMS7003;66486;49.992;19.164;2023-06-04T10:25:50;3.00;2.60;2.00
77413;PMS7003;66486;49.992;19.164;2023-06-04T10:28:18;1.00;1.00;1.00
77413;PMS7003;66486;49.992;19.164;2023-06-04T10:30:48;1.00;1.00;1.00
77413;PMS7003;66486;49.992;19.164;2023-06-04T10:33:19;0.20;0.00;0.00
77413;PMS7003;66486;49.992;19.164;2023-06-04T10:35:53;2.40;2.40;2.40
77413;PMS7003;66486;49.992;19.164;2023-06-04T10:38:23;2.00;2.00;2.00
77413;PMS7003;66486;49.992;19.164;2023-06-04T10:40:49;3.00;3.00;2.00
77413;PMS7003;66486;49.992;19.164;2023-06-04T10:43:16;2.80;2.80;2.00
77413;PMS7003;66486;49.992;19.164;2023-06-04T10:45:42;2.40;2.40;2.00
77413;PMS7003;66486;49.992;19.164;2023-06-04T10:48:09;2.80;2.80;2.60
77413;PMS7003;66486;49.992;19.164;2023-06-04T10:50:47;2.00;2.00;2.00
77413;PMS7003;66486;49.992;19.164;2023-06-04T10:53:14;2.00;1.80;1.20
77413;PMS7003;66486;49.992;19.164;2023-06-04T10:55:44;1.80;1.80;1.00
77413;PMS7003;66486;49.992;19.164;2023-06-04T10:58:11;2.00;2.00;2.00
77413;PMS7003;66486;49.992;19.164;2023-06-04T11:00:40;2.00;2.00;2.00
77413;PMS7003;66486;49.992;19.164;2023-06-04T11:03:09;2.00;2.00;2.00
77413;PMS7003;66486;49.992;19.164;2023-06-04T11:05:37;1.20;1.20;1.00
77413;PMS7003;66486;49.992;19.164;2023-06-04T11:08:11;3.00;3.00;2.20
77413;PMS7003;66486;49.992;19.164;2023-06-04T11:10:43;1.60;1.60;1.20
77413;PMS7003;66486;49.992;19.164;2023-06-04T11:13:10;2.80;2.80;2.60
77413;PMS7003;66486;49.992;19.164;2023-06-04T11:15:45;3.20;3.20;2.80
77413;PMS7003;66486;49.992;19.164;2023-06-04T11:18:14;0.00;0.00;0.00
77413;PMS7003;66486;49.992;19.164;2023-06-04T11:20:41;2.80;2.80;2.60
77413;PMS7003;66486;49.992;19.164;2023-06-04T11:23:11;2.40;2.40;2.00
77413;PMS7003;66486;49.992;19.164;2023-06-04T11:25:37;1.80;1.80;1.60
77413;PMS7003;66486;49.992;19.164;2023-06-04T11:28:04;2.40;2.40;2.00
77413;PMS7003;66486;49.992;19.164;2023-06-04T11:30:30;0.60;0.60;0.00
77413;PMS7003;66486;49.992;19.164;2023-06-04T11:33:00;2.80;2.80;2.00
77413;PMS7003;66486;49.992;19.164;2023-06-04T11:35:30;2.00;2.00;2.00
77413;PMS7003;66486;49.992;19.164;2023-06-04T11:37:57;1.60;1.60;1.60
77413;PMS7003;66486;49.992;19.164;2023-06-04T11:40:23;3.00;2.00;2.00
77413;PMS7003;66486;49.992;19.164;2023-06-04T11:42:52;2.40;2.40;2.00
77413;PMS7003;66486;49.992;19.164;2023-06-04T11:45:19;2.00;1.80;1.60
77413;PMS7003;66486;49.992;19.164;2023-06-04T11:47:48;2.00;2.00;2.00
77413;PMS7003;66486;49.992;19.164;2023-06-04T11:50:19;3.00;2.40;2.00
77413;PMS7003;66486;49.992;19.164;2023-06-04T11:52:49;2.00;2.00;2.00
77413;PMS7003;66486;49.992;19.164;2023-06-04T11:55:17;3.60;3.00;2.40
77413;PMS7003;66486;49.992;19.164;2023-06-04T11:57:46;2.20;2.20;2.00
77413;PMS7003;66486;49.992;19.164;2023-06-04T12:00:12;2.80;2.80;2.00
77413;PMS7003;66486;49.992;19.164;2023-06-04T12:02:48;3.80;3.80;2.80
77413;PMS7003;66486;49.992;19.164;2023-06-04T12:05:28;3.00;3.00;2.40
77413;PMS7003;66486;49.992;19.164;2023-06-04T12:08:05;2.00;2.00;1.00
77413;PMS7003;66486;49.992;19.164;2023-06-04T12:10:37;4.00;4.00;3.40
77413;PMS7003;66486;49.992;19.164;2023-06-04T12:13:04;2.00;2.00;1.80
77413;PMS7003;66486;49.992;19.164;2023-06-04T12:15:30;2.00;2.00;2.00
77413;PMS7003;66486;49.992;19.164;2023-06-04T12:17:56;3.40;3.40;2.80
77413;PMS7003;66486;49.992;19.164;2023-06-04T12:23:00;2.00;2.00;2.00
77413;PMS7003;66486;49.992;19.164;2023-06-04T12:25:27;3.20;3.20;3.00
77413;PMS7003;66486;49.992;19.164;2023-06-04T12:27:54;2.20;2.20;2.00
77413;PMS7003;66486;49.992;19.164;2023-06-04T12:30:20;3.00;3.00;3.00
77413;PMS7003;66486;49.992;19.164;2023-06-04T12:32:47;3.00;3.00;3.00
77413;PMS7003;66486;49.992;19.164;2023-06-04T12:35:13;3.40;3.40;3.00
77413;PMS7003;66486;49.992;19.164;2023-06-04T12:37:41;4.00;4.00;3.00
77413;PMS7003;66486;49.992;19.164;2023-06-04T12:40:07;2.40;2.40;2.20
77413;PMS7003;66486;49.992;19.164;2023-06-04T12:42:34;2.20;2.20;2.00
77413;PMS7003;66486;49.992;19.164;2023-06-04T12:45:00;2.00;2.00;2.00
77413;PMS7003;66486;49.992;19.164;2023-06-04T12:47:27;3.00;3.00;3.00
77413;PMS7003;66486;49.992;19.164;2023-06-04T12:49:53;2.00;2.00;2.00
77413;PMS7003;66486;49.992;19.164;2023-06-04T12:52:19;3.00;3.00;3.00
77413;PMS7003;66486;49.992;19.164;2023-06-04T12:54:45;2.00;2.00;2.00
77413;PMS7003;66486;49.992;19.164;2023-06-04T12:57:11;3.00;3.00;2.00
77413;PMS7003;66486;49.992;19.164;2023-06-04T12:59:37;2.00;2.00;2.00
77413;PMS7003;66486;49.992;19.164;2023-06-04T13:02:04;2.60;2.60;2.20
77413;PMS7003;66486;49.992;19.164;2023-06-04T13:04:29;2.40;2.40;2.00
77413;PMS7003;66486;49.992;19.164;2023-06-04T13:06:56;2.00;2.00;2.00
77413;PMS7003;66486;49.992;19.164;2023-06-04T13:09:24;2.00;2.00;2.00
77413;PMS7003;66486;49.992;19.164;2023-06-04T13:11:53;3.00;3.00;2.00
77413;PMS7003;66486;49.992;19.164;2023-06-04T13:14:19;3.00;3.00;2.60
77413;PMS7003;66486;49.992;19.164;2023-06-04T13:16:46;3.00;3.00;3.00
77413;PMS7003;66486;49.992;19.164;2023-06-04T13:19:14;3.00;2.00;2.00
77413;PMS7003;66486;49.992;19.164;2023-06-04T13:21:40;3.60;3.60;3.00
77413;PMS7003;66486;49.992;19.164;2023-06-04T13:24:06;2.00;2.00;2.00
77413;PMS7003;66486;49.992;19.164;2023-06-04T13:26:33;2.20;2.20;2.00
77413;PMS7003;66486;49.992;19.164;2023-06-04T13:28:59;27.00;27.00;23.00
77413;PMS7003;66486;49.992;19.164;2023-06-04T13:31:25;12.20;10.80;9.20
77413;PMS7003;66486;49.992;19.164;2023-06-04T13:33:51;8.40;8.40;7.00
77413;PMS7003;66486;49.992;19.164;2023-06-04T13:36:17;5.40;5.40;5.00
77413;PMS7003;66486;49.992;19.164;2023-06-04T13:38:43;9.40;8.40;7.40
77413;PMS7003;66486;49.992;19.164;2023-06-04T13:41:10;2.40;2.40;2.00
77413;PMS7003;66486;49.992;19.164;2023-06-04T13:43:36;3.20;3.20;3.00
77413;PMS7003;66486;49.992;19.164;2023-06-04T13:46:03;3.60;2.60;1.60
77413;PMS7003;66486;49.992;19.164;2023-06-04T13:48:29;2.60;2.60;2.40
77413;PMS7003;66486;49.992;19.164;2023-06-04T13:50:55;3.20;3.00;2.00
77413;PMS7003;66486;49.992;19.164;2023-06-04T13:53:21;6.60;6.60;3.20
77413;PMS7003;66486;49.992;19.164;2023-06-04T13:55:47;10.00;9.20;8.40
77413;PMS7003;66486;49.992;19.164;2023-06-04T13:58:13;2.60;2.60;2.20
77413;PMS7003;66486;49.992;19.164;2023-06-04T14:00:41;3.40;3.40;3.00
77413;PMS7003;66486;49.992;19.164;2023-06-04T14:03:06;5.00;5.00;4.25
77413;PMS7003;66486;49.992;19.164;2023-06-04T14:05:33;4.00;4.00;3.00
77413;PMS7003;66486;49.992;19.164;2023-06-04T14:07:58;3.75;3.75;3.25
77413;PMS7003;66486;49.992;19.164;2023-06-04T14:10:25;3.00;3.00;2.20